sensor_id;sensor_type;location;lat;lon;timestamp;P1;durP1;ratioP1;P2;durP2;ratioP2
50547;SDS011;38013;48.810;8.818;2023-05-07T00:00:24;5.60;;;3.30;;
50547;SDS011;38013;48.810;8.818;2023-05-07T00:02:52;6.25;;;3.50;;
50547;SDS011;38013;48.810;8.818;2023-05-07T00:05:20;5.00;;;2.60;;
50547;SDS011;38013;48.810;8.818;2023-05-07T00:07:48;4.13;;;2.00;;
50547;SDS011;38013;48.810;8.818;2023-05-07T00:10:19;4.28;;;1.70;;
50547;SDS011;38013;48.810;8.818;2023-05-07T00:12:46;5.03;;;1.73;;
50547;SDS011;38013;48.810;8.818;2023-05-07T00:15:16;5.68;;;1.63;;
50547;SDS011;38013;48.810;8.818;2023-05-07T00:17:43;4.63;;;2.05;;
50547;SDS011;38013;48.810;8.818;2023-05-07T00:20:10;7.65;;;2.35;;
50547;SDS011;38013;48.810;8.818;2023-05-07T00:22:38;5.40;;;1.90;;
50547;SDS011;38013;48.810;8.818;2023-05-07T00:25:06;5.63;;;1.80;;
50547;SDS011;38013;48.810;8.818;2023-05-07T00:27:34;4.28;;;1.55;;
50547;SDS011;38013;48.810;8.818;2023-05-07T00:30:04;5.43;;;2.03;;
50547;SDS011;38013;48.810;8.818;2023-05-07T00:32:32;5.35;;;2.33;;
50547;SDS011;38013;48.810;8.818;2023-05-07T00:35:00;4.00;;;2.15;;
50547;SDS011;38013;48.810;8.818;2023-05-07T00:37:27;4.10;;;2.15;;
50547;SDS011;38013;48.810;8.818;2023-05-07T00:39:54;6.90;;;2.10;;
50547;SDS011;38013;48.810;8.818;2023-05-07T00:42:21;7.55;;;3.08;;
50547;SDS011;38013;48.810;8.818;2023-05-07T00:44:48;14.85;;;4.38;;
50547;SDS011;38013;48.810;8.818;2023-05-07T00:47:16;10.15;;;3.88;;
50547;SDS011;38013;48.810;8.818;2023-05-07T00:49:44;7.05;;;2.90;;
50547;SDS011;38013;48.810;8.818;2023-05-07T00:52:16;5.47;;;2.28;;
50547;SDS011;38013;48.810;8.818;2023-05-07T00:54:47;7.65;;;2.50;;
50547;SDS011;38013;48.810;8.818;2023-05-07T00:57:15;5.65;;;2.60;;
50547;SDS011;38013;48.810;8.818;2023-05-07T00:59:43;5.25;;;2.33;;
50547;SDS011;38013;48.810;8.818;2023-05-07T01:02:10;3.40;;;1.85;;
50547;SDS011;38013;48.810;8.818;2023-05-07T01:04:38;4.72;;;1.98;;
50547;SDS011;38013;48.810;8.818;2023-05-07T01:07:05;4.28;;;1.80;;
50547;SDS011;38013;48.810;8.818;2023-05-07T01:09:32;5.95;;;1.90;;
50547;SDS011;38013;48.810;8.818;2023-05-07T01:12:01;5.25;;;2.35;;
50547;SDS011;38013;48.810;8.818;2023-05-07T01:14:30;8.77;;;2.30;;
50547;SDS011;38013;48.810;8.818;2023-05-07T01:16:59;4.85;;;1.75;;
50547;SDS011;38013;48.810;8.818;2023-05-07T01:19:26;4.40;;;2.20;;
50547;SDS011;38013;48.810;8.818;2023-05-07T01:21:58;4.20;;;1.70;;
50547;SDS011;38013;48.810;8.818;2023-05-07T01:24:35;6.72;;;2.05;;
50547;SDS011;38013;48.810;8.818;2023-05-07T01:27:04;4.35;;;2.13;;
50547;SDS011;38013;48.810;8.818;2023-05-07T01:29:32;6.28;;;2.80;;
50547;SDS011;38013;48.810;8.818;2023-05-07T01:32:00;5.25;;;2.40;;
50547;SDS011;38013;48.810;8.818;2023-05-07T01:34:28;5.93;;;2.60;;
50547;SDS011;38013;48.810;8.818;2023-05-07T01:36:59;4.40;;;2.35;;
50547;SDS011;38013;48.810;8.818;2023-05-07T01:39:27;4.93;;;2.22;;
50547;SDS011;38013;48.810;8.818;2023-05-07T01:41:56;5.93;;;2.38;;
50547;SDS011;38013;48.810;8.818;2023-05-07T01:44:23;8.07;;;2.70;;
50547;SDS011;38013;48.810;8.818;2023-05-07T01:46:51;4.30;;;2.20;;
50547;SDS011;38013;48.810;8.818;2023-05-07T01:49:18;4.65;;;2.20;;
50547;SDS011;38013;48.810;8.818;2023-05-07T01:51:45;11.70;;;2.50;;
50547;SDS011;38013;48.810;8.818;2023-05-07T01:54:12;4.38;;;2.13;;
50547;SDS011;38013;48.810;8.818;2023-05-07T01:56:40;5.22;;;2.00;;
50547;SDS011;38013;48.810;8.818;2023-05-07T01:59:07;4.65;;;1.63;;
50547;SDS011;38013;48.810;8.818;2023-05-07T02:01:34;8.68;;;2.75;;
50547;SDS011;38013;48.810;8.818;2023-05-07T02:04:01;4.28;;;1.80;;
50547;SDS011;38013;48.810;8.818;2023-05-07T02:06:28;5.03;;;2.15;;
50547;SDS011;38013;48.810;8.818;2023-05-07T02:09:01;4.43;;;1.73;;
50547;SDS011;38013;48.810;8.818;2023-05-07T02:11:28;5.15;;;1.88;;
50547;SDS011;38013;48.810;8.818;2023-05-07T02:13:56;5.57;;;1.90;;
50547;SDS011;38013;48.810;8.818;2023-05-07T02:16:23;3.78;;;1.77;;
50547;SDS011;38013;48.810;8.818;2023-05-07T02:18:51;3.63;;;2.10;;
50547;SDS011;38013;48.810;8.818;2023-05-07T02:21:18;5.03;;;2.03;;
50547;SDS011;38013;48.810;8.818;2023-05-07T02:23:45;4.13;;;1.85;;
50547;SDS011;38013;48.810;8.818;2023-05-07T02:26:11;5.28;;;1.98;;
50547;SDS011;38013;48.810;8.818;2023-05-07T02:28:38;3.85;;;1.83;;
50547;SDS011;38013;48.810;8.818;2023-05-07T02:31:05;2.80;;;1.52;;
50547;SDS011;38013;48.810;8.818;2023-05-07T02:33:33;5.18;;;1.70;;
50547;SDS011;38013;48.810;8.818;2023-05-07T02:36:09;3.65;;;1.52;;
50547;SDS011;38013;48.810;8.818;2023-05-07T02:39:03;3.55;;;1.75;;
50547;SDS011;38013;48.810;8.818;2023-05-07T02:41:30;2.75;;;1.30;;
50547;SDS011;38013;48.810;8.818;2023-05-07T02:43:57;3.35;;;1.50;;
50547;SDS011;38013;48.810;8.818;2023-05-07T02:46:24;4.68;;;1.60;;
50547;SDS011;38013;48.810;8.818;2023-05-07T02:48:58;5.65;;;1.52;;
50547;SDS011;38013;48.810;8.818;2023-05-07T02:51:25;2.88;;;1.42;;
50547;SDS011;38013;48.810;8.818;2023-05-07T02:53:56;4.22;;;1.48;;
50547;SDS011;38013;48.810;8.818;2023-05-07T02:56:23;5.82;;;1.55;;
50547;SDS011;38013;48.810;8.818;2023-05-07T02:58:52;6.85;;;1.92;;
50547;SDS011;38013;48.810;8.818;2023-05-07T03:01:21;3.05;;;1.85;;
50547;SDS011;38013;48.810;8.818;2023-05-07T03:03:57;2.28;;;1.48;;
50547;SDS011;38013;48.810;8.818;2023-05-07T03:06:24;3.70;;;1.95;;
50547;SDS011;38013;48.810;8.818;2023-05-07T03:08:52;3.75;;;1.60;;
50547;SDS011;38013;48.810;8.818;2023-05-07T03:11:19;3.20;;;1.75;;
50547;SDS011;38013;48.810;8.818;2023-05-07T03:13:46;3.35;;;1.70;;
50547;SDS011;38013;48.810;8.818;2023-05-07T03:16:17;6.55;;;1.90;;
50547;SDS011;38013;48.810;8.818;2023-05-07T03:18:44;4.15;;;1.83;;
50547;SDS011;38013;48.810;8.818;2023-05-07T03:21:11;4.15;;;1.75;;
50547;SDS011;38013;48.810;8.818;2023-05-07T03:23:37;2.83;;;1.55;;
50547;SDS011;38013;48.810;8.818;2023-05-07T03:26:04;4.47;;;1.65;;
50547;SDS011;38013;48.810;8.818;2023-05-07T03:28:31;3.30;;;1.88;;
50547;SDS011;38013;48.810;8.818;2023-05-07T03:31:02;3.55;;;1.90;;
50547;SDS011;38013;48.810;8.818;2023-05-07T03:33:32;3.40;;;1.65;;
50547;SDS011;38013;48.810;8.818;2023-05-07T03:36:00;2.67;;;1.48;;
50547;SDS011;38013;48.810;8.818;2023-05-07T03:38:27;4.15;;;1.30;;
50547;SDS011;38013;48.810;8.818;2023-05-07T03:40:54;3.22;;;1.40;;
50547;SDS011;38013;48.810;8.818;2023-05-07T03:43:21;3.13;;;1.63;;
50547;SDS011;38013;48.810;8.818;2023-05-07T03:45:55;2.75;;;1.23;;
50547;SDS011;38013;48.810;8.818;2023-05-07T03:48:25;2.88;;;1.40;;
50547;SDS011;38013;48.810;8.818;2023-05-07T03:50:54;3.60;;;1.50;;
50547;SDS011;38013;48.810;8.818;2023-05-07T03:53:24;4.43;;;1.92;;
50547;SDS011;38013;48.810;8.818;2023-05-07T03:55:51;3.70;;;2.05;;
50547;SDS011;38013;48.810;8.818;2023-05-07T03:58:19;3.03;;;1.73;;
50547;SDS011;38013;48.810;8.818;2023-05-07T04:00:46;3.58;;;1.90;;
50547;SDS011;38013;48.810;8.818;2023-05-07T04:03:27;4.28;;;1.85;;
50547;SDS011;38013;48.810;8.818;2023-05-07T04:05:57;9.93;;;2.85;;
50547;SDS011;38013;48.810;8.818;2023-05-07T04:08:24;4.47;;;1.92;;
50547;SDS011;38013;48.810;8.818;2023-05-07T04:10:56;5.78;;;2.05;;
50547;SDS011;38013;48.810;8.818;2023-05-07T04:13:29;3.65;;;1.90;;
50547;SDS011;38013;48.810;8.818;2023-05-07T04:15:57;6.00;;;2.00;;
50547;SDS011;38013;48.810;8.818;2023-05-07T04:18:31;5.05;;;2.20;;
50547;SDS011;38013;48.810;8.818;2023-05-07T04:20:58;3.50;;;1.88;;
50547;SDS011;38013;48.810;8.818;2023-05-07T04:23:25;4.60;;;2.10;;
50547;SDS011;38013;48.810;8.818;2023-05-07T04:25:53;2.53;;;1.52;;
50547;SDS011;38013;48.810;8.818;2023-05-07T04:28:38;3.67;;;1.83;;
50547;SDS011;38013;48.810;8.818;2023-05-07T04:31:06;5.15;;;1.80;;
50547;SDS011;38013;48.810;8.818;2023-05-07T04:33:35;6.22;;;2.20;;
50547;SDS011;38013;48.810;8.818;2023-05-07T04:36:03;5.32;;;1.50;;
50547;SDS011;38013;48.810;8.818;2023-05-07T04:38:36;2.28;;;1.33;;
50547;SDS011;38013;48.810;8.818;2023-05-07T04:41:04;3.47;;;1.73;;
50547;SDS011;38013;48.810;8.818;2023-05-07T04:43:36;3.67;;;1.60;;
50547;SDS011;38013;48.810;8.818;2023-05-07T04:46:03;3.72;;;1.98;;
50547;SDS011;38013;48.810;8.818;2023-05-07T04:48:30;4.13;;;1.75;;
50547;SDS011;38013;48.810;8.818;2023-05-07T04:50:58;3.67;;;2.10;;
50547;SDS011;38013;48.810;8.818;2023-05-07T04:53:25;2.90;;;1.60;;
50547;SDS011;38013;48.810;8.818;2023-05-07T04:55:54;3.17;;;1.67;;
50547;SDS011;38013;48.810;8.818;2023-05-07T04:58:31;4.93;;;1.58;;
50547;SDS011;38013;48.810;8.818;2023-05-07T05:00:59;3.83;;;1.52;;
50547;SDS011;38013;48.810;8.818;2023-05-07T05:03:27;4.57;;;1.75;;
50547;SDS011;38013;48.810;8.818;2023-05-07T05:05:54;3.00;;;1.70;;
50547;SDS011;38013;48.810;8.818;2023-05-07T05:08:22;4.75;;;1.98;;
50547;SDS011;38013;48.810;8.818;2023-05-07T05:10:49;3.72;;;1.63;;
50547;SDS011;38013;48.810;8.818;2023-05-07T05:13:17;3.40;;;1.80;;
50547;SDS011;38013;48.810;8.818;2023-05-07T05:15:44;3.95;;;1.75;;
50547;SDS011;38013;48.810;8.818;2023-05-07T05:18:12;3.30;;;1.73;;
50547;SDS011;38013;48.810;8.818;2023-05-07T05:20:39;3.92;;;2.00;;
50547;SDS011;38013;48.810;8.818;2023-05-07T05:23:07;3.13;;;1.80;;
50547;SDS011;38013;48.810;8.818;2023-05-07T05:25:35;5.73;;;2.00;;
50547;SDS011;38013;48.810;8.818;2023-05-07T05:28:03;5.80;;;2.13;;
50547;SDS011;38013;48.810;8.818;2023-05-07T05:30:33;3.35;;;2.03;;
50547;SDS011;38013;48.810;8.818;2023-05-07T05:33:01;4.63;;;1.85;;
50547;SDS011;38013;48.810;8.818;2023-05-07T05:35:29;3.92;;;1.67;;
50547;SDS011;38013;48.810;8.818;2023-05-07T05:37:57;4.82;;;2.05;;
50547;SDS011;38013;48.810;8.818;2023-05-07T05:40:24;3.55;;;1.70;;
50547;SDS011;38013;48.810;8.818;2023-05-07T05:42:51;6.93;;;1.70;;
50547;SDS011;38013;48.810;8.818;2023-05-07T05:45:18;5.90;;;1.90;;
50547;SDS011;38013;48.810;8.818;2023-05-07T05:47:45;6.18;;;1.70;;
50547;SDS011;38013;48.810;8.818;2023-05-07T05:50:12;4.78;;;1.85;;
50547;SDS011;38013;48.810;8.818;2023-05-07T05:52:39;2.83;;;1.70;;
50547;SDS011;38013;48.810;8.818;2023-05-07T05:55:07;3.97;;;2.03;;
50547;SDS011;38013;48.810;8.818;2023-05-07T05:57:36;3.58;;;1.92;;
50547;SDS011;38013;48.810;8.818;2023-05-07T06:00:03;3.75;;;2.10;;
50547;SDS011;38013;48.810;8.818;2023-05-07T06:02:32;3.67;;;1.90;;
50547;SDS011;38013;48.810;8.818;2023-05-07T06:05:00;4.30;;;2.00;;
50547;SDS011;38013;48.810;8.818;2023-05-07T06:07:26;4.13;;;1.98;;
50547;SDS011;38013;48.810;8.818;2023-05-07T06:09:54;4.18;;;1.98;;
50547;SDS011;38013;48.810;8.818;2023-05-07T06:12:21;3.35;;;1.88;;
50547;SDS011;38013;48.810;8.818;2023-05-07T06:14:48;3.10;;;1.90;;
50547;SDS011;38013;48.810;8.818;2023-05-07T06:17:15;4.88;;;2.20;;
50547;SDS011;38013;48.810;8.818;2023-05-07T06:19:46;4.57;;;2.03;;
50547;SDS011;38013;48.810;8.818;2023-05-07T06:22:15;4.47;;;1.95;;
50547;SDS011;38013;48.810;8.818;2023-05-07T06:24:42;3.95;;;1.88;;
50547;SDS011;38013;48.810;8.818;2023-05-07T06:27:09;6.93;;;2.30;;
50547;SDS011;38013;48.810;8.818;2023-05-07T06:29:38;3.90;;;2.22;;
50547;SDS011;38013;48.810;8.818;2023-05-07T06:32:12;6.97;;;2.53;;
50547;SDS011;38013;48.810;8.818;2023-05-07T06:34:42;4.13;;;2.22;;
50547;SDS011;38013;48.810;8.818;2023-05-07T06:37:09;3.30;;;2.03;;
50547;SDS011;38013;48.810;8.818;2023-05-07T06:39:59;4.13;;;2.20;;
50547;SDS011;38013;48.810;8.818;2023-05-07T06:42:28;3.92;;;2.20;;
50547;SDS011;38013;48.810;8.818;2023-05-07T06:44:59;4.47;;;2.17;;
50547;SDS011;38013;48.810;8.818;2023-05-07T06:47:29;3.70;;;2.10;;
50547;SDS011;38013;48.810;8.818;2023-05-07T06:49:56;3.65;;;2.10;;
50547;SDS011;38013;48.810;8.818;2023-05-07T06:52:26;4.00;;;2.10;;
50547;SDS011;38013;48.810;8.818;2023-05-07T06:54:53;3.70;;;2.13;;
50547;SDS011;38013;48.810;8.818;2023-05-07T06:57:23;4.93;;;2.25;;
50547;SDS011;38013;48.810;8.818;2023-05-07T06:59:50;3.25;;;2.05;;
50547;SDS011;38013;48.810;8.818;2023-05-07T07:02:18;4.43;;;2.50;;
50547;SDS011;38013;48.810;8.818;2023-05-07T07:04:48;5.13;;;2.40;;
50547;SDS011;38013;48.810;8.818;2023-05-07T07:07:15;3.75;;;2.20;;
50547;SDS011;38013;48.810;8.818;2023-05-07T07:09:44;5.50;;;2.65;;
50547;SDS011;38013;48.810;8.818;2023-05-07T07:12:13;5.10;;;2.58;;
50547;SDS011;38013;48.810;8.818;2023-05-07T07:14:41;3.75;;;2.55;;
50547;SDS011;38013;48.810;8.818;2023-05-07T07:17:08;4.03;;;2.47;;
50547;SDS011;38013;48.810;8.818;2023-05-07T07:19:35;4.75;;;2.38;;
50547;SDS011;38013;48.810;8.818;2023-05-07T07:22:03;3.95;;;2.20;;
50547;SDS011;38013;48.810;8.818;2023-05-07T07:24:31;4.95;;;2.63;;
50547;SDS011;38013;48.810;8.818;2023-05-07T07:27:06;3.70;;;2.25;;
50547;SDS011;38013;48.810;8.818;2023-05-07T07:29:34;5.50;;;2.50;;
50547;SDS011;38013;48.810;8.818;2023-05-07T07:32:04;3.95;;;2.30;;
50547;SDS011;38013;48.810;8.818;2023-05-07T07:34:31;4.93;;;2.50;;
50547;SDS011;38013;48.810;8.818;2023-05-07T07:37:00;6.57;;;2.80;;
50547;SDS011;38013;48.810;8.818;2023-05-07T07:39:32;7.90;;;2.40;;
50547;SDS011;38013;48.810;8.818;2023-05-07T07:42:15;6.10;;;2.63;;
50547;SDS011;38013;48.810;8.818;2023-05-07T07:44:42;4.03;;;2.45;;
50547;SDS011;38013;48.810;8.818;2023-05-07T07:47:11;3.78;;;2.17;;
50547;SDS011;38013;48.810;8.818;2023-05-07T07:49:39;4.28;;;2.22;;
50547;SDS011;38013;48.810;8.818;2023-05-07T07:52:08;4.00;;;2.25;;
50547;SDS011;38013;48.810;8.818;2023-05-07T07:54:37;5.15;;;2.22;;
50547;SDS011;38013;48.810;8.818;2023-05-07T07:57:06;4.88;;;2.38;;
50547;SDS011;38013;48.810;8.818;2023-05-07T07:59:33;6.18;;;2.35;;
50547;SDS011;38013;48.810;8.818;2023-05-07T08:02:00;3.85;;;2.00;;
50547;SDS011;38013;48.810;8.818;2023-05-07T08:04:28;5.10;;;2.28;;
50547;SDS011;38013;48.810;8.818;2023-05-07T08:07:00;3.75;;;2.00;;
50547;SDS011;38013;48.810;8.818;2023-05-07T08:09:28;9.02;;;2.13;;
50547;SDS011;38013;48.810;8.818;2023-05-07T08:11:58;4.10;;;2.10;;
50547;SDS011;38013;48.810;8.818;2023-05-07T08:14:25;4.18;;;2.00;;
50547;SDS011;38013;48.810;8.818;2023-05-07T08:16:52;3.85;;;1.77;;
50547;SDS011;38013;48.810;8.818;2023-05-07T08:19:19;9.13;;;2.20;;
50547;SDS011;38013;48.810;8.818;2023-05-07T08:21:47;3.72;;;1.90;;
50547;SDS011;38013;48.810;8.818;2023-05-07T08:24:16;2.63;;;1.70;;
50547;SDS011;38013;48.810;8.818;2023-05-07T08:26:45;3.88;;;1.75;;
50547;SDS011;38013;48.810;8.818;2023-05-07T08:29:13;6.07;;;2.15;;
50547;SDS011;38013;48.810;8.818;2023-05-07T08:31:41;2.90;;;1.70;;
50547;SDS011;38013;48.810;8.818;2023-05-07T08:34:08;5.00;;;1.70;;
50547;SDS011;38013;48.810;8.818;2023-05-07T08:36:38;3.15;;;1.55;;
50547;SDS011;38013;48.810;8.818;2023-05-07T08:41:35;3.13;;;1.30;;
50547;SDS011;38013;48.810;8.818;2023-05-07T08:44:03;5.55;;;1.70;;
50547;SDS011;38013;48.810;8.818;2023-05-07T08:46:38;3.30;;;1.58;;
50547;SDS011;38013;48.810;8.818;2023-05-07T08:49:06;4.60;;;1.75;;
50547;SDS011;38013;48.810;8.818;2023-05-07T08:51:34;4.68;;;1.90;;
50547;SDS011;38013;48.810;8.818;2023-05-07T08:54:02;6.03;;;1.60;;
50547;SDS011;38013;48.810;8.818;2023-05-07T08:56:31;3.60;;;1.83;;
50547;SDS011;38013;48.810;8.818;2023-05-07T08:58:58;3.38;;;1.52;;
50547;SDS011;38013;48.810;8.818;2023-05-07T09:01:27;4.75;;;1.42;;
50547;SDS011;38013;48.810;8.818;2023-05-07T09:03:55;3.53;;;1.70;;
50547;SDS011;38013;48.810;8.818;2023-05-07T09:06:22;4.05;;;1.40;;
50547;SDS011;38013;48.810;8.818;2023-05-07T09:08:53;3.45;;;1.98;;
50547;SDS011;38013;48.810;8.818;2023-05-07T09:11:24;3.85;;;1.80;;
50547;SDS011;38013;48.810;8.818;2023-05-07T09:13:54;3.05;;;1.50;;
50547;SDS011;38013;48.810;8.818;2023-05-07T09:16:23;6.70;;;1.52;;
50547;SDS011;38013;48.810;8.818;2023-05-07T09:18:53;5.38;;;1.40;;
50547;SDS011;38013;48.810;8.818;2023-05-07T09:21:21;3.38;;;1.52;;
50547;SDS011;38013;48.810;8.818;2023-05-07T09:23:51;3.13;;;1.70;;
50547;SDS011;38013;48.810;8.818;2023-05-07T09:29:24;2.72;;;1.30;;
50547;SDS011;38013;48.810;8.818;2023-05-07T09:32:32;3.67;;;1.80;;
50547;SDS011;38013;48.810;8.818;2023-05-07T09:35:16;3.75;;;1.65;;
50547;SDS011;38013;48.810;8.818;2023-05-07T09:37:49;2.88;;;1.50;;
50547;SDS011;38013;48.810;8.818;2023-05-07T09:40:22;3.40;;;1.60;;
50547;SDS011;38013;48.810;8.818;2023-05-07T09:43:09;3.20;;;1.48;;
50547;SDS011;38013;48.810;8.818;2023-05-07T09:45:48;3.00;;;1.58;;
50547;SDS011;38013;48.810;8.818;2023-05-07T09:48:58;2.85;;;1.70;;
50547;SDS011;38013;48.810;8.818;2023-05-07T09:51:41;2.90;;;1.50;;
50547;SDS011;38013;48.810;8.818;2023-05-07T09:54:25;3.33;;;1.20;;
50547;SDS011;38013;48.810;8.818;2023-05-07T09:57:18;6.07;;;2.05;;
50547;SDS011;38013;48.810;8.818;2023-05-07T10:00:09;4.78;;;1.63;;
50547;SDS011;38013;48.810;8.818;2023-05-07T10:03:07;5.70;;;1.60;;
50547;SDS011;38013;48.810;8.818;2023-05-07T10:08:15;4.00;;;1.52;;
50547;SDS011;38013;48.810;8.818;2023-05-07T10:10:45;8.27;;;2.65;;
50547;SDS011;38013;48.810;8.818;2023-05-07T10:13:18;7.90;;;2.08;;
50547;SDS011;38013;48.810;8.818;2023-05-07T10:15:49;6.43;;;1.58;;
50547;SDS011;38013;48.810;8.818;2023-05-07T10:18:19;4.20;;;1.27;;
50547;SDS011;38013;48.810;8.818;2023-05-07T10:20:53;3.10;;;1.45;;
50547;SDS011;38013;48.810;8.818;2023-05-07T10:23:35;4.32;;;1.58;;
50547;SDS011;38013;48.810;8.818;2023-05-07T10:26:11;4.13;;;1.60;;
50547;SDS011;38013;48.810;8.818;2023-05-07T10:28:49;3.20;;;1.42;;
50547;SDS011;38013;48.810;8.818;2023-05-07T10:31:48;3.72;;;1.60;;
50547;SDS011;38013;48.810;8.818;2023-05-07T10:34:39;3.50;;;1.20;;
50547;SDS011;38013;48.810;8.818;2023-05-07T10:37:10;6.38;;;1.23;;
50547;SDS011;38013;48.810;8.818;2023-05-07T10:39:37;3.80;;;1.20;;
50547;SDS011;38013;48.810;8.818;2023-05-07T10:42:12;4.10;;;1.45;;
50547;SDS011;38013;48.810;8.818;2023-05-07T10:44:46;3.22;;;1.20;;
50547;SDS011;38013;48.810;8.818;2023-05-07T10:47:20;7.85;;;1.40;;
50547;SDS011;38013;48.810;8.818;2023-05-07T10:52:24;3.65;;;1.45;;
50547;SDS011;38013;48.810;8.818;2023-05-07T11:01:07;10.20;;;1.92;;
50547;SDS011;38013;48.810;8.818;2023-05-07T11:04:12;6.65;;;2.00;;
50547;SDS011;38013;48.810;8.818;2023-05-07T11:15:14;4.95;;;2.08;;
50547;SDS011;38013;48.810;8.818;2023-05-07T11:17:52;3.92;;;2.00;;
50547;SDS011;38013;48.810;8.818;2023-05-07T11:20:44;4.80;;;2.05;;
50547;SDS011;38013;48.810;8.818;2023-05-07T11:26:15;3.80;;;2.13;;
50547;SDS011;38013;48.810;8.818;2023-05-07T11:28:43;6.28;;;2.30;;
50547;SDS011;38013;48.810;8.818;2023-05-07T11:31:10;5.20;;;2.17;;
50547;SDS011;38013;48.810;8.818;2023-05-07T11:33:38;3.47;;;1.98;;
50547;SDS011;38013;48.810;8.818;2023-05-07T11:36:10;6.57;;;1.92;;
50547;SDS011;38013;48.810;8.818;2023-05-07T11:38:43;5.20;;;1.63;;
50547;SDS011;38013;48.810;8.818;2023-05-07T11:41:11;3.63;;;1.75;;
50547;SDS011;38013;48.810;8.818;2023-05-07T11:43:38;2.95;;;1.55;;
50547;SDS011;38013;48.810;8.818;2023-05-07T11:46:23;5.93;;;1.77;;
50547;SDS011;38013;48.810;8.818;2023-05-07T11:48:50;5.22;;;2.30;;
50547;SDS011;38013;48.810;8.818;2023-05-07T11:51:22;3.47;;;1.98;;
50547;SDS011;38013;48.810;8.818;2023-05-07T11:53:52;5.78;;;1.70;;
50547;SDS011;38013;48.810;8.818;2023-05-07T11:56:19;3.63;;;1.58;;
50547;SDS011;38013;48.810;8.818;2023-05-07T11:58:47;4.53;;;1.58;;
50547;SDS011;38013;48.810;8.818;2023-05-07T12:01:15;3.95;;;1.70;;
50547;SDS011;38013;48.810;8.818;2023-05-07T12:03:42;7.90;;;1.75;;
50547;SDS011;38013;48.810;8.818;2023-05-07T12:06:13;5.30;;;1.80;;
50547;SDS011;38013;48.810;8.818;2023-05-07T12:08:42;5.70;;;1.83;;
50547;SDS011;38013;48.810;8.818;2023-05-07T12:11:14;4.75;;;1.77;;
50547;SDS011;38013;48.810;8.818;2023-05-07T12:13:47;3.33;;;1.65;;
50547;SDS011;38013;48.810;8.818;2023-05-07T12:16:14;4.50;;;2.00;;
50547;SDS011;38013;48.810;8.818;2023-05-07T12:18:42;3.38;;;1.70;;
50547;SDS011;38013;48.810;8.818;2023-05-07T12:21:09;6.53;;;2.20;;
50547;SDS011;38013;48.810;8.818;2023-05-07T12:23:37;4.63;;;1.77;;
50547;SDS011;38013;48.810;8.818;2023-05-07T12:26:04;6.82;;;1.92;;
50547;SDS011;38013;48.810;8.818;2023-05-07T12:28:37;3.70;;;1.83;;
50547;SDS011;38013;48.810;8.818;2023-05-07T12:31:05;6.22;;;2.10;;
50547;SDS011;38013;48.810;8.818;2023-05-07T12:33:36;3.20;;;1.40;;
50547;SDS011;38013;48.810;8.818;2023-05-07T12:36:05;2.85;;;1.23;;
50547;SDS011;38013;48.810;8.818;2023-05-07T12:38:37;2.88;;;1.35;;
50547;SDS011;38013;48.810;8.818;2023-05-07T12:41:06;3.03;;;1.60;;
50547;SDS011;38013;48.810;8.818;2023-05-07T12:43:36;4.93;;;1.58;;
50547;SDS011;38013;48.810;8.818;2023-05-07T12:46:05;3.05;;;1.65;;
50547;SDS011;38013;48.810;8.818;2023-05-07T12:48:35;3.08;;;1.50;;
50547;SDS011;38013;48.810;8.818;2023-05-07T12:51:04;2.38;;;1.00;;
50547;SDS011;38013;48.810;8.818;2023-05-07T12:53:32;2.13;;;1.03;;
50547;SDS011;38013;48.810;8.818;2023-05-07T12:56:00;2.60;;;1.13;;
50547;SDS011;38013;48.810;8.818;2023-05-07T12:58:29;2.40;;;1.10;;
50547;SDS011;38013;48.810;8.818;2023-05-07T13:01:00;2.45;;;1.08;;
50547;SDS011;38013;48.810;8.818;2023-05-07T13:03:31;2.00;;;1.05;;
50547;SDS011;38013;48.810;8.818;2023-05-07T13:06:05;3.47;;;0.90;;
50547;SDS011;38013;48.810;8.818;2023-05-07T13:08:39;3.22;;;1.10;;
50547;SDS011;38013;48.810;8.818;2023-05-07T13:11:09;2.67;;;1.17;;
50547;SDS011;38013;48.810;8.818;2023-05-07T13:13:39;5.67;;;1.30;;
50547;SDS011;38013;48.810;8.818;2023-05-07T13:16:09;2.87;;;1.17;;
50547;SDS011;38013;48.810;8.818;2023-05-07T13:18:38;2.53;;;1.25;;
50547;SDS011;38013;48.810;8.818;2023-05-07T13:21:07;4.50;;;1.20;;
50547;SDS011;38013;48.810;8.818;2023-05-07T13:23:34;1.65;;;1.00;;
50547;SDS011;38013;48.810;8.818;2023-05-07T13:26:01;2.05;;;0.88;;
50547;SDS011;38013;48.810;8.818;2023-05-07T13:28:40;2.87;;;1.00;;
50547;SDS011;38013;48.810;8.818;2023-05-07T13:31:07;4.20;;;1.00;;
50547;SDS011;38013;48.810;8.818;2023-05-07T13:33:34;2.85;;;0.95;;
50547;SDS011;38013;48.810;8.818;2023-05-07T13:36:02;2.22;;;1.00;;
50547;SDS011;38013;48.810;8.818;2023-05-07T13:38:31;4.68;;;1.10;;
50547;SDS011;38013;48.810;8.818;2023-05-07T13:40:58;1.38;;;1.00;;
50547;SDS011;38013;48.810;8.818;2023-05-07T13:43:25;3.17;;;1.13;;
50547;SDS011;38013;48.810;8.818;2023-05-07T13:45:52;4.50;;;1.33;;
50547;SDS011;38013;48.810;8.818;2023-05-07T13:48:19;2.50;;;1.00;;
50547;SDS011;38013;48.810;8.818;2023-05-07T13:50:46;2.38;;;0.90;;
50547;SDS011;38013;48.810;8.818;2023-05-07T13:53:13;1.80;;;0.82;;
50547;SDS011;38013;48.810;8.818;2023-05-07T13:55:44;2.60;;;1.10;;
50547;SDS011;38013;48.810;8.818;2023-05-07T13:58:11;3.22;;;1.20;;
50547;SDS011;38013;48.810;8.818;2023-05-07T14:00:38;1.88;;;0.88;;
50547;SDS011;38013;48.810;8.818;2023-05-07T14:03:04;2.90;;;1.02;;
50547;SDS011;38013;48.810;8.818;2023-05-07T14:05:32;2.03;;;1.02;;
50547;SDS011;38013;48.810;8.818;2023-05-07T14:07:59;2.55;;;1.08;;
50547;SDS011;38013;48.810;8.818;2023-05-07T14:10:26;3.10;;;1.30;;
50547;SDS011;38013;48.810;8.818;2023-05-07T14:12:53;4.10;;;1.30;;
50547;SDS011;38013;48.810;8.818;2023-05-07T14:15:20;5.32;;;1.30;;
50547;SDS011;38013;48.810;8.818;2023-05-07T14:17:50;2.97;;;1.30;;
50547;SDS011;38013;48.810;8.818;2023-05-07T14:20:17;7.95;;;1.48;;
50547;SDS011;38013;48.810;8.818;2023-05-07T14:22:46;6.28;;;1.42;;
50547;SDS011;38013;48.810;8.818;2023-05-07T14:25:13;6.82;;;1.23;;
50547;SDS011;38013;48.810;8.818;2023-05-07T14:27:46;5.22;;;1.50;;
50547;SDS011;38013;48.810;8.818;2023-05-07T14:30:13;5.53;;;1.23;;
50547;SDS011;38013;48.810;8.818;2023-05-07T14:32:39;5.47;;;1.20;;
50547;SDS011;38013;48.810;8.818;2023-05-07T14:35:07;2.40;;;1.30;;
50547;SDS011;38013;48.810;8.818;2023-05-07T14:37:34;3.42;;;1.20;;
50547;SDS011;38013;48.810;8.818;2023-05-07T14:40:01;3.17;;;1.17;;
50547;SDS011;38013;48.810;8.818;2023-05-07T14:42:29;6.10;;;1.42;;
50547;SDS011;38013;48.810;8.818;2023-05-07T14:44:59;5.05;;;1.48;;
50547;SDS011;38013;48.810;8.818;2023-05-07T14:47:29;3.67;;;1.20;;
50547;SDS011;38013;48.810;8.818;2023-05-07T14:49:56;3.65;;;1.73;;
50547;SDS011;38013;48.810;8.818;2023-05-07T14:52:23;3.58;;;1.23;;
50547;SDS011;38013;48.810;8.818;2023-05-07T14:54:50;2.60;;;1.30;;
50547;SDS011;38013;48.810;8.818;2023-05-07T14:57:17;6.10;;;1.50;;
50547;SDS011;38013;48.810;8.818;2023-05-07T14:59:45;4.25;;;1.40;;
50547;SDS011;38013;48.810;8.818;2023-05-07T15:02:13;3.72;;;1.48;;
50547;SDS011;38013;48.810;8.818;2023-05-07T15:04:45;4.47;;;1.67;;
50547;SDS011;38013;48.810;8.818;2023-05-07T15:09:42;4.57;;;1.30;;
50547;SDS011;38013;48.810;8.818;2023-05-07T15:12:10;2.83;;;1.45;;
50547;SDS011;38013;48.810;8.818;2023-05-07T15:14:38;3.42;;;1.20;;
50547;SDS011;38013;48.810;8.818;2023-05-07T15:17:05;3.67;;;1.40;;
50547;SDS011;38013;48.810;8.818;2023-05-07T15:19:33;4.90;;;1.48;;
50547;SDS011;38013;48.810;8.818;2023-05-07T15:22:00;5.85;;;1.42;;
50547;SDS011;38013;48.810;8.818;2023-05-07T15:24:29;3.42;;;1.30;;
50547;SDS011;38013;48.810;8.818;2023-05-07T15:26:57;3.70;;;1.48;;
50547;SDS011;38013;48.810;8.818;2023-05-07T15:29:24;5.72;;;1.73;;
50547;SDS011;38013;48.810;8.818;2023-05-07T15:31:51;6.18;;;1.42;;
50547;SDS011;38013;48.810;8.818;2023-05-07T15:34:18;2.83;;;1.40;;